createdAt,value
2017-04-15T00:00:54.556Z,0
2017-04-15T00:02:17.009Z,0
2017-04-15T00:03:39.478Z,0
2017-04-15T00:05:01.308Z,0
2017-04-15T00:06:24.080Z,0
2017-04-15T00:07:46.539Z,0
2017-04-15T00:09:08.468Z,0
2017-04-15T00:10:30.668Z,0
2017-04-15T00:11:52.873Z,0
2017-04-15T00:13:14.426Z,0
2017-04-15T00:14:36.577Z,0
2017-04-15T00:15:59.105Z,0
2017-04-15T00:17:21.256Z,0
2017-04-15T00:18:42.699Z,0
2017-04-15T00:20:04.548Z,0
2017-04-15T00:21:26.708Z,0
2017-04-15T00:22:48.856Z,0
2017-04-15T00:24:11.248Z,0
2017-04-15T00:25:33.421Z,0
2017-04-15T00:26:55.890Z,0
2017-04-15T00:28:18.021Z,0
2017-04-15T00:29:39.468Z,0
2017-04-15T00:31:01.682Z,0
2017-04-15T00:32:23.833Z,0
2017-04-15T00:33:45.348Z,0
2017-04-15T00:35:08.054Z,0
2017-04-15T00:36:29.578Z,0
2017-04-15T00:37:51.419Z,0
2017-04-15T00:39:13.576Z,0
2017-04-15T00:40:36.096Z,0
2017-04-15T00:41:57.299Z,0
2017-04-15T00:43:19.688Z,0
2017-04-15T00:44:41.837Z,0
2017-04-15T00:46:04.228Z,0
2017-04-15T00:47:26.047Z,0
2017-04-15T00:48:47.259Z,0
2017-04-15T00:50:09.490Z,0
2017-04-15T00:51:32.011Z,0
2017-04-15T00:52:53.838Z,0
2017-04-15T00:54:15.989Z,0
2017-04-15T00:55:37.838Z,0
2017-04-15T00:57:00.229Z,0
2017-04-15T00:58:22.756Z,0
2017-04-15T00:59:44.337Z,0
2017-04-15T01:01:06.168Z,0
2017-04-15T01:02:28.569Z,0
2017-04-15T01:03:50.439Z,0
2017-04-15T01:05:12.247Z,0
2017-04-15T01:06:33.758Z,0
2017-04-15T01:07:55.879Z,0
2017-04-15T01:09:18.031Z,0
2017-04-15T01:10:39.850Z,0
2017-04-15T01:12:02.001Z,0
2017-04-15T01:13:24.528Z,0
2017-04-15T01:14:46.390Z,0
2017-04-15T01:16:08.068Z,0
2017-04-15T01:17:30.225Z,0
2017-04-15T01:18:52.207Z,0
2017-04-15T01:20:13.806Z,0
2017-04-15T01:21:35.758Z,0
2017-04-15T01:22:58.116Z,0
2017-04-15T01:24:20.197Z,0
2017-04-15T01:25:42.653Z,0
2017-04-15T01:27:04.160Z,0
2017-04-15T01:28:26.321Z,0
2017-04-15T01:29:48.641Z,0
2017-04-15T01:31:10.217Z,0
2017-04-15T01:32:32.383Z,0
2017-04-15T01:33:54.017Z,0
2017-04-15T01:35:16.401Z,0
2017-04-15T01:36:38.247Z,0
2017-04-15T01:38:00.087Z,0
2017-04-15T01:39:21.589Z,0
2017-04-15T01:40:43.357Z,0
2017-04-15T01:42:05.577Z,0
2017-04-15T01:43:27.199Z,0
2017-04-15T01:44:49.359Z,0
2017-04-15T01:46:11.538Z,0
2017-04-15T01:47:33.372Z,0
2017-04-15T01:48:55.188Z,0
2017-04-15T01:50:17.449Z,0
2017-04-15T01:51:39.588Z,0
2017-04-15T01:53:01.418Z,0
2017-04-15T01:54:24.028Z,0
2017-04-15T01:55:46.173Z,0
2017-04-15T01:57:08.937Z,0
2017-04-15T01:58:30.456Z,0
2017-04-15T01:59:52.281Z,0
2017-04-15T02:01:14.098Z,0
2017-04-15T02:02:36.549Z,0
2017-04-15T02:03:58.432Z,0
2017-04-15T02:05:19.946Z,0
2017-04-15T02:06:41.257Z,0
2017-04-15T02:08:04.118Z,0
2017-04-15T02:09:25.464Z,0
2017-04-15T02:10:46.658Z,0
2017-04-15T02:12:09.158Z,0
2017-04-15T02:13:32.009Z,0
2017-04-15T02:14:53.837Z,0
2017-04-15T02:16:15.671Z,0
2017-04-15T02:17:37.288Z,0
2017-04-15T02:19:00.176Z,0
2017-04-15T02:20:21.358Z,0
2017-04-15T02:21:43.808Z,0
2017-04-15T02:23:06.259Z,0
2017-04-15T02:24:28.188Z,0
2017-04-15T02:25:50.341Z,0
2017-04-15T02:27:12.799Z,0
2017-04-15T02:28:34.620Z,0
2017-04-15T02:29:57.135Z,0
2017-04-15T02:31:18.964Z,0
2017-04-15T02:32:41.095Z,0
2017-04-15T02:34:03.234Z,0
2017-04-15T02:35:25.358Z,0
2017-04-15T02:36:46.876Z,0
2017-04-15T02:38:08.498Z,0
2017-04-15T02:39:30.322Z,0
2017-04-15T02:40:53.170Z,0
2017-04-15T02:42:15.647Z,0
2017-04-15T02:43:37.077Z,0
2017-04-15T02:44:58.777Z,0
2017-04-15T02:46:20.548Z,0
2017-04-15T02:47:42.688Z,0
2017-04-15T02:49:04.528Z,0
2017-04-15T02:50:26.577Z,0
2017-04-15T02:51:48.977Z,0
2017-04-15T02:53:10.487Z,0
2017-04-15T02:54:32.453Z,0
2017-04-15T02:55:53.956Z,0
2017-04-15T02:57:15.567Z,0
2017-04-15T02:58:37.721Z,0
2017-04-15T02:59:59.599Z,0
2017-04-15T03:01:21.480Z,0
2017-04-15T03:02:43.834Z,0
2017-04-15T03:04:05.665Z,0
2017-04-15T03:05:28.204Z,0
2017-04-15T03:06:50.331Z,0
2017-04-15T03:08:12.718Z,0
2017-04-15T03:09:34.318Z,0
2017-04-15T03:10:56.445Z,0
2017-04-15T03:12:18.243Z,0
2017-04-15T03:13:40.717Z,0
2017-04-15T03:15:02.271Z,0
2017-04-15T03:16:23.841Z,0
2017-04-15T03:17:45.658Z,0
2017-04-15T03:19:08.098Z,0
2017-04-15T03:20:30.257Z,0
2017-04-15T03:21:52.087Z,0
2017-04-15T03:23:13.633Z,0
2017-04-15T03:24:36.187Z,0
2017-04-15T03:25:58.080Z,0
2017-04-15T03:27:19.918Z,0
2017-04-15T03:28:41.855Z,0
2017-04-15T03:30:03.928Z,0
2017-04-15T03:31:26.078Z,0
2017-04-15T03:32:48.538Z,0
2017-04-15T03:34:10.362Z,0
2017-04-15T03:35:32.559Z,0
2017-04-15T03:36:54.687Z,0
2017-04-15T03:38:16.519Z,0
2017-04-15T03:39:38.647Z,0
2017-04-15T03:41:00.626Z,0
2017-04-15T03:42:22.147Z,0
2017-04-15T03:43:44.307Z,0
2017-04-15T03:45:06.848Z,0
2017-04-15T03:46:29.239Z,0
2017-04-15T03:47:50.488Z,0
2017-04-15T03:49:12.387Z,0
2017-04-15T03:50:33.905Z,0
2017-04-15T03:51:56.076Z,0
2017-04-15T03:53:17.568Z,0
2017-04-15T03:54:39.594Z,0
2017-04-15T03:56:01.718Z,0
2017-04-15T03:57:23.999Z,0
2017-04-15T03:58:46.158Z,0
2017-04-15T04:00:07.997Z,0
2017-04-15T04:01:29.819Z,0
2017-04-15T04:02:51.638Z,0
2017-04-15T04:04:13.578Z,0
2017-04-15T04:05:35.738Z,0
2017-04-15T04:06:57.257Z,0
2017-04-15T04:08:19.136Z,0
2017-04-15T04:09:41.587Z,0
2017-04-15T04:11:03.097Z,0
2017-04-15T04:12:24.638Z,0
2017-04-15T04:13:47.071Z,0
2017-04-15T04:15:09.258Z,0
2017-04-15T04:16:31.109Z,0
2017-04-15T04:17:52.607Z,0
2017-04-15T04:19:14.109Z,0
2017-04-15T04:20:36.584Z,0
2017-04-15T04:21:58.087Z,0
2017-04-15T04:23:20.229Z,0
2017-04-15T04:24:43.054Z,0
2017-04-15T04:26:05.187Z,0
2017-04-15T04:27:27.400Z,0
2017-04-15T04:28:49.557Z,5
2017-04-15T04:30:11.625Z,5
2017-04-15T04:31:34.076Z,5
2017-04-15T04:32:56.026Z,5
2017-04-15T04:34:17.650Z,5
2017-04-15T04:35:39.806Z,5
2017-04-15T04:37:01.717Z,5
2017-04-15T04:38:23.537Z,5
2017-04-15T04:39:45.449Z,5
2017-04-15T04:41:07.987Z,5
2017-04-15T04:42:29.488Z,5
2017-04-15T04:43:51.699Z,5
2017-04-15T04:45:13.833Z,5
2017-04-15T04:46:35.677Z,5
2017-04-15T04:47:57.817Z,0
2017-04-15T04:49:19.347Z,5
2017-04-15T04:50:41.281Z,5
2017-04-15T04:52:03.667Z,10
2017-04-15T04:53:25.618Z,5
2017-04-15T04:54:47.438Z,10
2017-04-15T04:56:09.030Z,15
2017-04-15T04:57:31.408Z,20
2017-04-15T04:58:53.246Z,20
2017-04-15T05:00:15.597Z,25
2017-04-15T05:01:37.106Z,30
2017-04-15T05:02:59.547Z,35
2017-04-15T05:04:21.694Z,25
2017-04-15T05:05:43.828Z,20
2017-04-15T05:07:05.838Z,15
2017-04-15T05:08:28.218Z,15
2017-04-15T05:09:49.744Z,15
2017-04-15T05:11:10.927Z,20
2017-04-15T05:12:32.765Z,25
2017-04-15T05:13:54.348Z,20
2017-04-15T05:15:16.808Z,20
2017-04-15T05:16:38.950Z,30
2017-04-15T05:18:00.837Z,20
2017-04-15T05:19:23.609Z,20
2017-04-15T05:20:45.158Z,20
2017-04-15T05:22:07.639Z,15
2017-04-15T05:23:28.827Z,15
2017-04-15T05:24:51.327Z,20
2017-04-15T05:26:13.165Z,15
2017-04-15T05:27:35.387Z,15
2017-04-15T05:28:56.917Z,15
2017-04-15T05:30:19.418Z,15
2017-04-15T05:31:41.373Z,20
2017-04-15T05:33:03.598Z,15
2017-04-15T05:34:25.888Z,10
2017-04-15T05:35:48.409Z,20
2017-04-15T05:37:10.585Z,20
2017-04-15T05:38:32.723Z,15
2017-04-15T05:39:54.308Z,10
2017-04-15T05:41:16.819Z,15
2017-04-15T05:42:38.717Z,15
2017-04-15T05:44:00.948Z,20
2017-04-15T05:45:23.538Z,15
2017-04-15T05:46:46.308Z,20
2017-04-15T05:48:08.462Z,25
2017-04-15T05:49:30.688Z,30
2017-04-15T05:50:51.884Z,35
2017-04-15T05:52:13.660Z,45
2017-04-15T05:53:35.477Z,35
2017-04-15T05:54:57.877Z,50
2017-04-15T05:56:20.019Z,30
2017-04-15T05:57:42.458Z,25
2017-04-15T05:59:04.607Z,25
2017-04-15T06:00:26.469Z,30
2017-04-15T06:01:47.971Z,30
2017-04-15T06:03:10.492Z,30
2017-04-15T06:04:32.319Z,30
2017-04-15T06:05:54.138Z,25
2017-04-15T06:07:16.285Z,30
2017-04-15T06:08:38.939Z,50
2017-04-15T06:10:01.146Z,45
2017-04-15T06:11:23.313Z,45
2017-04-15T06:12:44.847Z,40
2017-04-15T06:14:06.973Z,50
2017-04-15T06:15:29.108Z,45
2017-04-15T06:16:51.588Z,35
2017-04-15T06:18:13.115Z,40
2017-04-15T06:19:35.900Z,40
2017-04-15T06:20:57.847Z,45
2017-04-15T06:22:20.018Z,45
2017-04-15T06:23:42.176Z,45
2017-04-15T06:25:04.295Z,50
2017-04-15T06:26:26.454Z,40
2017-04-15T06:27:47.944Z,50
2017-04-15T06:29:10.085Z,70
2017-04-15T06:30:31.847Z,75
2017-04-15T06:31:53.995Z,75
2017-04-15T06:33:15.324Z,90
2017-04-15T06:34:37.780Z,90
2017-04-15T06:36:00.508Z,100
2017-04-15T06:37:22.964Z,85
2017-04-15T06:38:44.788Z,55
2017-04-15T06:40:06.621Z,70
2017-04-15T06:41:29.077Z,105
2017-04-15T06:42:50.918Z,95
2017-04-15T06:44:12.808Z,100
2017-04-15T06:45:34.947Z,95
2017-04-15T06:46:57.378Z,85
2017-04-15T06:48:19.109Z,70
2017-04-15T06:49:41.846Z,50
2017-04-15T06:51:03.984Z,60
2017-04-15T06:52:26.439Z,115
2017-04-15T06:53:48.900Z,125
2017-04-15T06:55:11.051Z,100
2017-04-15T06:56:32.887Z,115
2017-04-15T06:57:54.798Z,115
2017-04-15T06:59:16.657Z,110
2017-04-15T07:00:38.810Z,100
2017-04-15T07:02:00.625Z,110
2017-04-15T07:03:22.470Z,130
2017-04-15T07:04:44.954Z,170
2017-04-15T07:06:07.424Z,245
2017-04-15T07:07:29.568Z,250
2017-04-15T07:08:51.972Z,280
2017-04-15T07:10:14.139Z,235
2017-04-15T07:11:35.728Z,205
2017-04-15T07:12:57.639Z,135
2017-04-15T07:14:19.737Z,160
2017-04-15T07:15:42.207Z,175
2017-04-15T07:17:04.038Z,185
2017-04-15T07:18:26.211Z,175
2017-04-15T07:19:47.727Z,220
2017-04-15T07:21:10.049Z,240
2017-04-15T07:22:31.959Z,215
2017-04-15T07:23:53.466Z,195
2017-04-15T07:25:16.263Z,150
2017-04-15T07:26:38.171Z,200
2017-04-15T07:27:59.747Z,175
2017-04-15T07:29:21.588Z,150
2017-04-15T07:30:44.290Z,135
2017-04-15T07:32:06.557Z,105
2017-04-15T07:33:28.086Z,85
2017-04-15T07:34:49.594Z,85
2017-04-15T07:36:11.738Z,70
2017-04-15T07:37:32.993Z,95
2017-04-15T07:38:54.847Z,120
2017-04-15T07:40:17.145Z,110
2017-04-15T07:41:39.894Z,175
2017-04-15T07:43:01.749Z,245
2017-04-15T07:44:23.568Z,190
2017-04-15T07:45:45.969Z,240
2017-04-15T07:47:08.380Z,430
2017-04-15T07:48:29.993Z,425
2017-04-15T07:49:52.148Z,540
2017-04-15T07:51:14.018Z,415
2017-04-15T07:52:36.092Z,360
2017-04-15T07:53:57.930Z,455
2017-04-15T07:55:20.097Z,430
2017-04-15T07:56:41.996Z,395
2017-04-15T07:58:04.295Z,350
2017-04-15T07:59:26.590Z,355
2017-04-15T08:00:48.727Z,310
2017-04-15T08:02:10.575Z,410
2017-04-15T08:03:32.982Z,415
2017-04-15T08:04:54.498Z,295
2017-04-15T08:06:16.352Z,260
2017-04-15T08:07:38.829Z,355
2017-04-15T08:09:00.897Z,350
2017-04-15T08:10:22.418Z,350
2017-04-15T08:11:44.948Z,315
2017-04-15T08:13:07.211Z,145
2017-04-15T08:14:29.395Z,195
2017-04-15T08:15:51.948Z,245
2017-04-15T08:17:14.121Z,380
2017-04-15T08:18:36.639Z,455
2017-04-15T08:19:59.047Z,435
2017-04-15T08:21:20.968Z,290
2017-04-15T08:22:43.498Z,325
2017-04-15T08:24:05.328Z,280
2017-04-15T08:25:28.309Z,355
2017-04-15T08:26:50.658Z,345
2017-04-15T08:28:12.561Z,345
2017-04-15T08:29:34.487Z,350
2017-04-15T08:30:57.247Z,340
2017-04-15T08:32:18.778Z,435
2017-04-15T08:33:40.972Z,445
2017-04-15T08:35:03.126Z,440
2017-04-15T08:36:25.274Z,390
2017-04-15T08:37:47.768Z,335
2017-04-15T08:39:10.239Z,370
2017-04-15T08:40:32.528Z,300
2017-04-15T08:41:54.448Z,325
2017-04-15T08:43:16.619Z,375
2017-04-15T08:44:38.826Z,320
2017-04-15T08:46:00.971Z,330
2017-04-15T08:47:23.436Z,320
2017-04-15T08:48:44.947Z,285
2017-04-15T08:50:06.462Z,265
2017-04-15T08:51:28.313Z,240
2017-04-15T08:52:50.739Z,280
2017-04-15T08:54:13.261Z,320
2017-04-15T08:55:34.774Z,285
2017-04-15T08:56:56.937Z,280
2017-04-15T08:58:19.347Z,280
2017-04-15T08:59:40.908Z,290
2017-04-15T09:01:02.798Z,310
2017-04-15T09:02:24.312Z,325
2017-04-15T09:03:46.498Z,325
2017-04-15T09:05:08.667Z,315
2017-04-15T09:06:30.199Z,335
2017-04-15T09:07:52.831Z,355
2017-04-15T09:09:15.087Z,330
2017-04-15T09:10:36.619Z,345
2017-04-15T09:11:58.127Z,310
2017-04-15T09:13:20.002Z,355
2017-04-15T09:14:42.158Z,370
2017-04-15T09:16:03.690Z,405
2017-04-15T09:17:25.845Z,375
2017-04-15T09:18:48.062Z,320
2017-04-15T09:20:11.027Z,295
2017-04-15T09:21:32.837Z,280
2017-04-15T09:22:54.678Z,265
2017-04-15T09:24:16.849Z,270
2017-04-15T09:25:39.258Z,290
2017-04-15T09:27:00.595Z,300
2017-04-15T09:28:21.789Z,265
2017-04-15T09:29:43.950Z,305
2017-04-15T09:31:06.350Z,300
2017-04-15T09:32:28.841Z,305
2017-04-15T09:33:51.218Z,290
2017-04-15T09:35:13.454Z,285
2017-04-15T09:36:35.859Z,305
2017-04-15T09:37:57.721Z,325
2017-04-15T09:39:19.609Z,385
2017-04-15T09:40:42.064Z,445
2017-04-15T09:42:04.882Z,420
2017-04-15T09:43:27.050Z,335
2017-04-15T09:44:49.533Z,315
2017-04-15T09:46:11.836Z,345
2017-04-15T09:47:34.379Z,400
2017-04-15T09:48:56.547Z,290
2017-04-15T09:50:18.387Z,210
2017-04-15T09:51:40.226Z,215
2017-04-15T09:53:02.685Z,240
2017-04-15T09:54:25.268Z,240
2017-04-15T09:55:47.137Z,300
2017-04-15T09:57:09.036Z,310
2017-04-15T09:58:32.062Z,305
2017-04-15T09:59:53.582Z,245
2017-04-15T10:01:15.799Z,200
2017-04-15T10:02:37.638Z,225
2017-04-15T10:04:00.406Z,230
2017-04-15T10:05:22.249Z,300
2017-04-15T10:06:44.715Z,390
2017-04-15T10:08:06.887Z,435
2017-04-15T10:09:29.596Z,440
2017-04-15T10:10:51.557Z,450
2017-04-15T10:12:13.495Z,355
2017-04-15T10:13:35.788Z,310
2017-04-15T10:14:58.266Z,275
2017-04-15T10:16:19.956Z,325
2017-04-15T10:17:41.788Z,355
2017-04-15T10:19:03.956Z,295
2017-04-15T10:20:26.372Z,240
2017-04-15T10:21:48.234Z,235
2017-04-15T10:23:10.389Z,260
2017-04-15T10:24:32.249Z,295
2017-04-15T10:25:54.347Z,300
2017-04-15T10:27:15.881Z,335
2017-04-15T10:28:38.385Z,390
2017-04-15T10:29:59.912Z,375
2017-04-15T10:31:22.423Z,360
2017-04-15T10:32:44.009Z,370
2017-04-15T10:34:06.608Z,360
2017-04-15T10:35:28.456Z,315
2017-04-15T10:36:50.249Z,285
2017-04-15T10:38:12.724Z,295
2017-04-15T10:39:34.618Z,280
2017-04-15T10:40:56.558Z,320
2017-04-15T10:42:18.374Z,310
2017-04-15T10:43:40.218Z,300
2017-04-15T10:45:02.565Z,320
2017-04-15T10:46:24.703Z,345
2017-04-15T10:47:47.112Z,320
2017-04-15T10:49:09.600Z,310
2017-04-15T10:50:32.187Z,285
2017-04-15T10:51:53.785Z,250
2017-04-15T10:53:15.617Z,255
2017-04-15T10:54:37.819Z,280
2017-04-15T10:55:59.655Z,335
2017-04-15T10:57:21.836Z,350
2017-04-15T10:58:44.299Z,430
2017-04-15T11:00:06.138Z,455
2017-04-15T11:01:28.711Z,220
2017-04-15T11:02:51.253Z,110
2017-04-15T11:04:13.798Z,100
2017-04-15T11:05:36.281Z,105
2017-04-15T11:06:58.431Z,110
2017-04-15T11:08:20.617Z,115
2017-04-15T11:09:43.188Z,110
2017-04-15T11:11:05.397Z,125
2017-04-15T11:12:27.547Z,175
2017-04-15T11:13:49.377Z,225
2017-04-15T11:15:11.892Z,280
2017-04-15T11:16:34.068Z,285
2017-04-15T11:17:56.571Z,275
2017-04-15T11:19:18.749Z,310
2017-04-15T11:20:41.765Z,345
2017-04-15T11:22:03.616Z,380
2017-04-15T11:23:26.240Z,415
2017-04-15T11:24:48.409Z,440
2017-04-15T11:26:10.487Z,400
2017-04-15T11:27:32.711Z,420
2017-04-15T11:28:54.857Z,435
2017-04-15T11:30:16.997Z,380
2017-04-15T11:31:39.126Z,360
2017-04-15T11:33:01.282Z,355
2017-04-15T11:34:23.155Z,355
2017-04-15T11:35:45.329Z,360
2017-04-15T11:37:07.798Z,345
2017-04-15T11:38:30.088Z,340
2017-04-15T11:39:51.928Z,340
2017-04-15T11:41:14.408Z,350
2017-04-15T11:42:36.806Z,365
2017-04-15T11:43:58.969Z,410
2017-04-15T11:45:21.132Z,450
2017-04-15T11:46:43.281Z,490
2017-04-15T11:48:06.044Z,510
2017-04-15T11:49:27.875Z,425
2017-04-15T11:50:50.018Z,260
2017-04-15T11:52:11.888Z,255
2017-04-15T11:53:33.758Z,280
2017-04-15T11:54:55.997Z,240
2017-04-15T11:56:18.164Z,280
2017-04-15T11:57:40.639Z,300
2017-04-15T11:59:03.153Z,255
2017-04-15T12:00:25.627Z,250
2017-04-15T12:01:47.819Z,235
2017-04-15T12:03:09.973Z,255
2017-04-15T12:04:32.858Z,275
2017-04-15T12:05:55.025Z,305
2017-04-15T12:07:17.027Z,340
2017-04-15T12:08:38.863Z,320
2017-04-15T12:10:01.338Z,295
2017-04-15T12:11:23.497Z,315
2017-04-15T12:12:45.086Z,345
2017-04-15T12:14:07.589Z,375
2017-04-15T12:15:30.367Z,415
2017-04-15T12:16:52.536Z,390
2017-04-15T12:18:14.717Z,295
2017-04-15T12:19:36.655Z,235
2017-04-15T12:20:58.905Z,210
2017-04-15T12:22:21.247Z,195
2017-04-15T12:23:42.829Z,210
2017-04-15T12:25:05.356Z,185
2017-04-15T12:26:27.489Z,180
2017-04-15T12:27:49.636Z,180
2017-04-15T12:29:11.787Z,180
2017-04-15T12:30:34.327Z,180
2017-04-15T12:31:57.185Z,180
2017-04-15T12:33:19.150Z,175
2017-04-15T12:34:41.748Z,175
2017-04-15T12:36:03.927Z,175
2017-04-15T12:37:26.528Z,175
2017-04-15T12:38:48.761Z,180
2017-04-15T12:40:10.648Z,190
2017-04-15T12:41:32.807Z,180
2017-04-15T12:42:55.288Z,195
2017-04-15T12:44:17.127Z,225
2017-04-15T12:45:39.287Z,235
2017-04-15T12:47:01.151Z,240
2017-04-15T12:48:23.655Z,245
2017-04-15T12:49:45.871Z,210
2017-04-15T12:51:08.031Z,225
2017-04-15T12:52:30.637Z,220
2017-04-15T12:53:53.376Z,250
2017-04-15T12:55:15.537Z,285
2017-04-15T12:56:38.025Z,300
2017-04-15T12:58:00.260Z,340
2017-04-15T12:59:22.734Z,315
2017-04-15T13:00:45.224Z,250
2017-04-15T13:02:07.387Z,210
2017-04-15T13:03:29.550Z,210
2017-04-15T13:04:51.873Z,260
2017-04-15T13:06:14.051Z,265
2017-04-15T13:07:36.281Z,260
2017-04-15T13:08:58.797Z,265
2017-04-15T13:10:21.640Z,270
2017-04-15T13:11:43.788Z,270
2017-04-15T13:13:06.022Z,290
2017-04-15T13:14:28.190Z,285
2017-04-15T13:15:50.646Z,250
2017-04-15T13:17:11.833Z,195
2017-04-15T13:18:33.362Z,205
2017-04-15T13:19:54.569Z,245
2017-04-15T13:21:16.993Z,230
2017-04-15T13:22:38.869Z,210
2017-04-15T13:24:00.758Z,210
2017-04-15T13:25:23.025Z,205
2017-04-15T13:26:44.827Z,205
2017-04-15T13:28:07.007Z,205
2017-04-15T13:29:29.217Z,190
2017-04-15T13:30:51.099Z,195
2017-04-15T13:32:13.496Z,215
2017-04-15T13:33:35.347Z,205
2017-04-15T13:34:56.895Z,220
2017-04-15T13:36:19.039Z,235
2017-04-15T13:37:41.887Z,230
2017-04-15T13:39:04.048Z,235
2017-04-15T13:40:26.540Z,240
2017-04-15T13:41:48.790Z,240
2017-04-15T13:43:11.278Z,250
2017-04-15T13:44:33.471Z,245
2017-04-15T13:45:55.327Z,240
2017-04-15T13:47:17.631Z,260
2017-04-15T13:48:39.916Z,255
2017-04-15T13:50:02.128Z,265
2017-04-15T13:51:24.597Z,270
2017-04-15T13:52:46.442Z,240
2017-04-15T13:54:08.366Z,240
2017-04-15T13:55:30.868Z,265
2017-04-15T13:56:52.821Z,270
2017-04-15T13:58:14.688Z,255
2017-04-15T13:59:37.393Z,265
2017-04-15T14:00:59.218Z,290
2017-04-15T14:02:21.048Z,320
2017-04-15T14:03:43.254Z,270
2017-04-15T14:05:05.568Z,240
2017-04-15T14:06:27.741Z,265
2017-04-15T14:07:50.717Z,290
2017-04-15T14:09:12.871Z,290
2017-04-15T14:10:35.399Z,285
2017-04-15T14:11:57.567Z,270
2017-04-15T14:13:19.499Z,260
2017-04-15T14:14:41.989Z,265
2017-04-15T14:16:04.395Z,275
2017-04-15T14:17:26.928Z,280
2017-04-15T14:18:49.226Z,270
2017-04-15T14:20:11.757Z,260
2017-04-15T14:21:34.317Z,245
2017-04-15T14:22:56.505Z,250
2017-04-15T14:24:18.988Z,270
2017-04-15T14:25:41.486Z,315
2017-04-15T14:27:03.698Z,285
2017-04-15T14:28:25.581Z,280
2017-04-15T14:29:48.070Z,285
2017-04-15T14:31:10.308Z,275
2017-04-15T14:32:33.169Z,275
2017-04-15T14:33:55.116Z,290
2017-04-15T14:35:17.270Z,290
2017-04-15T14:36:39.757Z,280
2017-04-15T14:38:02.320Z,265
2017-04-15T14:39:24.167Z,255
2017-04-15T14:40:46.115Z,280
2017-04-15T14:42:07.945Z,290
2017-04-15T14:43:30.369Z,265
2017-04-15T14:44:52.215Z,230
2017-04-15T14:46:14.428Z,190
2017-04-15T14:47:36.618Z,160
2017-04-15T14:48:59.037Z,160
2017-04-15T14:50:21.316Z,165
2017-04-15T14:51:43.228Z,155
2017-04-15T14:53:05.107Z,155
2017-04-15T14:54:27.207Z,155
2017-04-15T14:55:49.368Z,150
2017-04-15T14:57:11.855Z,130
2017-04-15T14:58:34.578Z,95
2017-04-15T14:59:57.258Z,65
2017-04-15T15:01:19.423Z,45
2017-04-15T15:02:40.940Z,35
2017-04-15T15:04:03.425Z,30
2017-04-15T15:05:25.816Z,30
2017-04-15T15:06:47.992Z,40
2017-04-15T15:08:09.536Z,65
2017-04-15T15:09:32.027Z,90
2017-04-15T15:10:53.796Z,105
2017-04-15T15:12:16.254Z,100
2017-04-15T15:13:38.400Z,105
2017-04-15T15:15:00.557Z,110
2017-04-15T15:16:23.389Z,135
2017-04-15T15:17:44.927Z,155
2017-04-15T15:19:07.176Z,140
2017-04-15T15:20:29.321Z,115
2017-04-15T15:21:51.488Z,120
2017-04-15T15:23:13.635Z,100
2017-04-15T15:24:35.475Z,110
2017-04-15T15:25:57.039Z,160
2017-04-15T15:27:19.139Z,225
2017-04-15T15:28:40.669Z,255
2017-04-15T15:30:03.229Z,250
2017-04-15T15:31:25.095Z,290
2017-04-15T15:32:47.557Z,250
2017-04-15T15:34:10.047Z,220
2017-04-15T15:35:31.965Z,225
2017-04-15T15:36:53.788Z,215
2017-04-15T15:38:16.618Z,185
2017-04-15T15:39:38.457Z,160
2017-04-15T15:41:00.617Z,155
2017-04-15T15:42:23.084Z,150
2017-04-15T15:43:45.279Z,145
2017-04-15T15:45:07.437Z,135
2017-04-15T15:46:29.578Z,135
2017-04-15T15:47:51.853Z,145
2017-04-15T15:49:13.845Z,165
2017-04-15T15:50:36.007Z,210
2017-04-15T15:51:57.939Z,230
2017-04-15T15:53:20.526Z,230
2017-04-15T15:54:43.323Z,200
2017-04-15T15:56:05.487Z,195
2017-04-15T15:57:27.980Z,170
2017-04-15T15:58:49.824Z,160
2017-04-15T16:00:11.988Z,150
2017-04-15T16:01:33.866Z,150
2017-04-15T16:02:56.118Z,170
2017-04-15T16:04:17.755Z,150
2017-04-15T16:05:39.207Z,155
2017-04-15T16:07:01.426Z,155
2017-04-15T16:08:23.274Z,120
2017-04-15T16:09:44.818Z,110
2017-04-15T16:11:07.079Z,120
2017-04-15T16:12:29.545Z,115
2017-04-15T16:13:51.762Z,110
2017-04-15T16:15:13.927Z,95
2017-04-15T16:16:36.768Z,90
2017-04-15T16:17:58.946Z,95
2017-04-15T16:19:21.106Z,80
2017-04-15T16:20:42.635Z,70
2017-04-15T16:22:04.726Z,70
2017-04-15T16:23:26.351Z,80
2017-04-15T16:24:48.190Z,100
2017-04-15T16:26:10.367Z,120
2017-04-15T16:27:32.885Z,130
2017-04-15T16:28:54.756Z,110
2017-04-15T16:30:17.226Z,105
2017-04-15T16:31:39.390Z,95
2017-04-15T16:33:01.854Z,75
2017-04-15T16:34:24.130Z,55
2017-04-15T16:35:46.336Z,30
2017-04-15T16:37:08.205Z,20
2017-04-15T16:38:30.368Z,20
2017-04-15T16:39:52.827Z,55
2017-04-15T16:41:15.225Z,100
2017-04-15T16:42:37.484Z,150
2017-04-15T16:43:59.029Z,225
2017-04-15T16:45:21.197Z,270
2017-04-15T16:46:43.793Z,250
2017-04-15T16:48:05.952Z,185
2017-04-15T16:49:28.067Z,145
2017-04-15T16:50:50.527Z,130
2017-04-15T16:52:12.668Z,120
2017-04-15T16:53:34.916Z,115
2017-04-15T16:54:57.200Z,115
2017-04-15T16:56:19.061Z,110
2017-04-15T16:57:41.210Z,110
2017-04-15T16:59:02.848Z,105
2017-04-15T17:00:24.670Z,105
2017-04-15T17:01:46.863Z,100
2017-04-15T17:03:09.330Z,100
2017-04-15T17:04:31.188Z,100
2017-04-15T17:05:53.678Z,100
2017-04-15T17:07:16.188Z,95
2017-04-15T17:08:38.751Z,95
2017-04-15T17:10:00.942Z,90
2017-04-15T17:11:23.377Z,85
2017-04-15T17:12:45.588Z,85
2017-04-15T17:14:08.077Z,85
2017-04-15T17:15:29.608Z,90
2017-04-15T17:16:51.801Z,95
2017-04-15T17:18:13.334Z,90
2017-04-15T17:19:34.906Z,90
2017-04-15T17:20:57.876Z,85
2017-04-15T17:22:19.885Z,80
2017-04-15T17:23:41.407Z,80
2017-04-15T17:25:03.862Z,75
2017-04-15T17:26:25.459Z,70
2017-04-15T17:27:48.061Z,70
2017-04-15T17:29:10.227Z,65
2017-04-15T17:30:32.086Z,65
2017-04-15T17:31:53.916Z,60
2017-04-15T17:33:16.051Z,60
2017-04-15T17:34:38.278Z,60
2017-04-15T17:36:00.210Z,60
2017-04-15T17:37:22.796Z,60
2017-04-15T17:38:45.067Z,60
2017-04-15T17:40:07.227Z,60
2017-04-15T17:41:29.389Z,60
2017-04-15T17:42:51.545Z,60
2017-04-15T17:44:14.309Z,55
2017-04-15T17:45:36.150Z,55
2017-04-15T17:46:58.077Z,50
2017-04-15T17:48:20.256Z,50
2017-04-15T17:49:42.536Z,50
2017-04-15T17:51:04.388Z,50
2017-04-15T17:52:26.848Z,50
2017-04-15T17:53:49.086Z,45
2017-04-15T17:55:10.637Z,45
2017-04-15T17:56:32.810Z,40
2017-04-15T17:57:55.065Z,40
2017-04-15T17:59:17.237Z,35
2017-04-15T18:00:40.180Z,35
2017-04-15T18:02:03.104Z,35
2017-04-15T18:03:25.166Z,30
2017-04-15T18:04:47.654Z,30
2017-04-15T18:06:10.118Z,30
2017-04-15T18:07:31.998Z,25
2017-04-15T18:08:54.167Z,20
2017-04-15T18:10:16.757Z,20
2017-04-15T18:11:39.486Z,20
2017-04-15T18:13:01.976Z,15
2017-04-15T18:14:24.128Z,15
2017-04-15T18:15:46.433Z,15
2017-04-15T18:17:08.873Z,10
2017-04-15T18:18:31.364Z,10
2017-04-15T18:19:53.588Z,10
2017-04-15T18:21:15.780Z,10
2017-04-15T18:22:38.287Z,5
2017-04-15T18:24:00.238Z,5
2017-04-15T18:25:22.757Z,5
2017-04-15T18:26:45.106Z,5
2017-04-15T18:28:07.537Z,5
2017-04-15T18:29:29.377Z,5
2017-04-15T18:30:51.846Z,0
2017-04-15T18:32:14.007Z,0
2017-04-15T18:33:36.528Z,0
2017-04-15T18:34:58.667Z,0
2017-04-15T18:36:21.236Z,0
2017-04-15T18:37:43.089Z,0
2017-04-15T18:39:05.881Z,0
2017-04-15T18:40:28.067Z,0
2017-04-15T18:41:49.935Z,0
2017-04-15T18:43:12.099Z,0
2017-04-15T18:44:34.297Z,0
2017-04-15T18:45:56.557Z,0
2017-04-15T18:47:18.716Z,0
2017-04-15T18:48:40.924Z,0
2017-04-15T18:50:03.795Z,0
2017-04-15T18:51:26.348Z,0
2017-04-15T18:52:49.038Z,0
2017-04-15T18:54:10.858Z,0
2017-04-15T18:55:33.343Z,0
2017-04-15T18:56:55.827Z,0
2017-04-15T18:58:18.329Z,0
2017-04-15T18:59:40.488Z,0
2017-04-15T19:01:03.198Z,0
2017-04-15T19:02:25.349Z,0
2017-04-15T19:03:47.516Z,0
2017-04-15T19:05:10.116Z,0
2017-04-15T19:06:32.728Z,0
2017-04-15T19:07:54.603Z,0
2017-04-15T19:09:16.850Z,0
2017-04-15T19:10:38.998Z,0
2017-04-15T19:12:01.496Z,0
2017-04-15T19:13:23.679Z,0
2017-04-15T19:14:45.837Z,0
2017-04-15T19:16:08.010Z,0
2017-04-15T19:17:30.489Z,0
2017-04-15T19:18:53.045Z,0
2017-04-15T19:20:15.138Z,0
2017-04-15T19:21:37.160Z,0
2017-04-15T19:23:00.008Z,0